Time;durP1;ratioP1;P1;durP2;ratioP2;P2;SDS_P1;SDS_P2;PMS_P1;PMS_P2;Temp;Humidity;BMP_temperature;BMP_pressure;BME280_temperature;BME280_humidity;BME280_pressure;Samples;Min_cycle;Max_cycle;Signal;HPM_P1;HPM_P2
2021/03/11 00:01:37;;;;;;;16.58;8.98;;;;;;;;;;5091755;28;20029;-74
2021/03/11 00:04:03;;;;;;;17.23;9.80;;;;;;;;;;5092192;28;20028;-74
2021/03/11 00:06:29;;;;;;;16.45;9.85;;;;;;;;;;5092128;28;20058;-73
2021/03/11 00:08:55;;;;;;;18.95;10.05;;;;;;;;;;5091875;28;20051;-74
2021/03/11 00:11:22;;;;;;;18.63;9.35;;;;;;;;;;5092187;28;20040;-73
2021/03/11 00:13:48;;;;;;;17.27;10.32;;;;;;;;;;5092412;28;20020;-73
2021/03/11 00:16:14;;;;;;;17.98;9.10;;;;;;;;;;5092061;28;20435;-73
2021/03/11 00:18:40;;;;;;;19.27;9.35;;;;;;;;;;5092114;28;20021;-73
2021/03/11 00:21:06;;;;;;;16.95;9.68;;;;;;;;;;5091822;28;20051;-73
2021/03/11 00:23:33;;;;;;;18.08;9.80;;;;;;;;;;5091749;28;20016;-73
2021/03/11 00:25:59;;;;;;;17.40;8.93;;;;;;;;;;5092027;28;20031;-74
2021/03/11 00:28:26;;;;;;;18.10;10.77;;;;;;;;;;5091704;28;20136;-73
2021/03/11 00:30:52;;;;;;;19.63;10.18;;;;;;;;;;5092037;28;20094;-73
2021/03/11 00:33:18;;;;;;;17.13;10.52;;;;;;;;;;5090859;28;20419;-73
2021/03/11 00:35:44;;;;;;;20.40;9.88;;;;;;;;;;5091904;28;20043;-74
2021/03/11 00:38:10;;;;;;;17.85;9.57;;;;;;;;;;5091857;28;20028;-73
2021/03/11 00:40:37;;;;;;;17.23;10.07;;;;;;;;;;5090649;28;20028;-74
2021/03/11 00:43:03;;;;;;;21.35;10.05;;;;;;;;;;5091440;28;20077;-74
2021/03/11 00:45:29;;;;;;;16.00;10.07;;;;;;;;;;5093408;28;20070;-73
2021/03/11 00:47:55;;;;;;;17.02;10.43;;;;;;;;;;5094209;28;20030;-73
2021/03/11 00:50:23;;;;;;;17.92;9.73;;;;;;;;;;5095124;28;20530;-73
2021/03/11 00:52:50;;;;;;;18.00;10.38;;;;;;;;;;5095443;28;20024;-73
2021/03/11 00:55:18;;;;;;;28.30;10.38;;;;;;;;;;5095511;28;20024;-74
2021/03/11 00:57:44;;;;;;;20.35;9.27;;;;;;;;;;5094931;28;20372;-74
2021/03/11 01:00:12;;;;;;;19.10;10.63;;;;;;;;;;5095281;28;20031;-74
2021/03/11 01:02:39;;;;;;;17.77;10.15;;;;;;;;;;5095155;28;20024;-73
2021/03/11 01:05:06;;;;;;;15.85;9.65;;;;;;;;;;5094755;28;20016;-73
2021/03/11 01:07:32;;;;;;;16.27;9.30;;;;;;;;;;5095102;28;20035;-73
2021/03/11 01:09:59;;;;;;;18.50;9.65;;;;;;;;;;5095080;28;20028;-73
2021/03/11 01:12:25;;;;;;;20.10;8.95;;;;;;;;;;5094641;28;20361;-73
2021/03/11 01:14:51;;;;;;;18.70;10.48;;;;;;;;;;5095271;28;20024;-73
2021/03/11 01:17:17;;;;;;;16.95;9.15;;;;;;;;;;5095081;28;20020;-73
2021/03/11 01:19:43;;;;;;;18.92;10.50;;;;;;;;;;5094327;28;20095;-73
2021/03/11 01:22:09;;;;;;;17.35;9.82;;;;;;;;;;5094771;28;20102;-73
2021/03/11 01:24:35;;;;;;;18.15;9.48;;;;;;;;;;5094848;28;20054;-74
2021/03/11 01:27:02;;;;;;;16.90;9.82;;;;;;;;;;5094431;28;20102;-71
2021/03/11 01:29:28;;;;;;;19.83;10.00;;;;;;;;;;5094700;28;20031;-71
2021/03/11 01:31:54;;;;;;;19.10;9.73;;;;;;;;;;5094290;28;20036;-71
2021/03/11 01:34:20;;;;;;;17.55;9.27;;;;;;;;;;5094619;28;20036;-71
2021/03/11 01:36:46;;;;;;;18.92;11.20;;;;;;;;;;5094731;28;20035;-71
2021/03/11 01:39:13;;;;;;;19.58;9.43;;;;;;;;;;5094360;28;20020;-72
2021/03/11 01:41:39;;;;;;;16.13;9.75;;;;;;;;;;5094422;28;20391;-71
2021/03/11 01:44:05;;;;;;;18.40;10.05;;;;;;;;;;5094392;28;20020;-71
2021/03/11 01:46:31;;;;;;;18.73;11.18;;;;;;;;;;5093866;28;20027;-72
2021/03/11 01:48:58;;;;;;;19.75;11.20;;;;;;;;;;5094219;28;20030;-71
2021/03/11 01:51:25;;;;;;;18.00;11.00;;;;;;;;;;5094248;28;20024;-71
2021/03/11 01:53:51;;;;;;;20.58;10.13;;;;;;;;;;5093859;28;20076;-71
2021/03/11 01:56:18;;;;;;;16.80;9.38;;;;;;;;;;5094216;28;20025;-72
2021/03/11 01:58:45;;;;;;;18.13;10.00;;;;;;;;;;5094103;28;20484;-72
2021/03/11 02:01:11;;;;;;;17.55;10.50;;;;;;;;;;5093557;28;20035;-71
2021/03/11 02:03:38;;;;;;;20.90;11.30;;;;;;;;;;5094079;28;20092;-71
2021/03/11 02:06:04;;;;;;;19.35;10.55;;;;;;;;;;5093946;28;20361;-71
2021/03/11 02:08:31;;;;;;;23.42;11.90;;;;;;;;;;5093447;28;20077;-72
2021/03/11 02:10:58;;;;;;;19.73;10.48;;;;;;;;;;5093864;28;20361;-72
2021/03/11 02:13:30;;;;;;;19.15;9.23;;;;;;;;;;5093792;28;20491;-72
2021/03/11 02:15:58;;;;;;;21.02;12.23;;;;;;;;;;5092257;28;20361;-72
2021/03/11 02:18:28;;;;;;;18.58;9.30;;;;;;;;;;5093738;28;20024;-71
2021/03/11 02:21:02;;;;;;;19.00;10.65;;;;;;;;;;5093412;28;20056;-72
2021/03/11 02:23:37;;;;;;;22.33;11.00;;;;;;;;;;5093639;28;20020;-71
2021/03/11 02:26:15;;;;;;;24.23;11.07;;;;;;;;;;5092300;28;20108;-72
2021/03/11 02:28:59;;;;;;;20.85;11.52;;;;;;;;;;5093130;28;20028;-71
2021/03/11 02:31:27;;;;;;;20.95;11.05;;;;;;;;;;5093476;28;20055;-72
2021/03/11 02:33:54;;;;;;;21.83;11.02;;;;;;;;;;5093566;28;20024;-71
2021/03/11 02:36:21;;;;;;;19.27;10.90;;;;;;;;;;5093250;28;20024;-72
2021/03/11 02:38:49;;;;;;;23.10;11.50;;;;;;;;;;5093348;28;20042;-72
2021/03/11 02:41:17;;;;;;;20.88;11.10;;;;;;;;;;5091891;28;20168;-72
2021/03/11 02:43:46;;;;;;;16.60;10.85;;;;;;;;;;5092854;28;20039;-71
2021/03/11 02:46:12;;;;;;;19.17;10.85;;;;;;;;;;5093227;28;20031;-72
2021/03/11 02:48:38;;;;;;;21.17;12.05;;;;;;;;;;5093204;28;20074;-72
2021/03/11 02:51:05;;;;;;;17.77;11.15;;;;;;;;;;5092757;28;20065;-72
2021/03/11 02:53:31;;;;;;;19.08;10.07;;;;;;;;;;5091800;28;20032;-72
2021/03/11 02:55:58;;;;;;;21.13;10.45;;;;;;;;;;5091942;28;20024;-72
2021/03/11 02:58:25;;;;;;;18.92;10.45;;;;;;;;;;5092752;28;20563;-72
2021/03/11 03:00:52;;;;;;;22.80;12.82;;;;;;;;;;5091630;28;20050;-72
2021/03/11 03:03:18;;;;;;;27.65;12.95;;;;;;;;;;5092662;28;20092;-71
2021/03/11 03:05:45;;;;;;;21.13;10.70;;;;;;;;;;5092927;28;20020;-71
2021/03/11 03:08:11;;;;;;;19.20;11.43;;;;;;;;;;5092297;28;20032;-71
2021/03/11 03:10:38;;;;;;;19.33;11.63;;;;;;;;;;5092643;28;20401;-72
2021/03/11 03:13:06;;;;;;;19.88;9.85;;;;;;;;;;5092840;28;20024;-71
2021/03/11 03:15:33;;;;;;;23.42;11.70;;;;;;;;;;5091653;28;20040;-71
2021/03/11 03:17:59;;;;;;;18.27;12.07;;;;;;;;;;5091280;28;20438;-71
2021/03/11 03:20:27;;;;;;;19.00;10.77;;;;;;;;;;5092437;28;20495;-71
2021/03/11 03:22:54;;;;;;;21.00;11.55;;;;;;;;;;5092540;28;20515;-71
2021/03/11 03:25:21;;;;;;;21.25;11.07;;;;;;;;;;5092220;28;20027;-71
2021/03/11 03:27:47;;;;;;;18.17;11.73;;;;;;;;;;5092589;28;20032;-71
2021/03/11 03:30:14;;;;;;;19.55;10.20;;;;;;;;;;5092635;28;20476;-72
2021/03/11 03:32:41;;;;;;;19.90;10.73;;;;;;;;;;5092182;28;20058;-71
2021/03/11 03:35:08;;;;;;;21.85;11.07;;;;;;;;;;5092653;28;20016;-71
2021/03/11 03:37:34;;;;;;;16.17;9.88;;;;;;;;;;5092719;28;20024;-72
2021/03/11 03:40:08;;;;;;;19.67;10.57;;;;;;;;;;5092209;28;20028;-72
2021/03/11 03:42:40;;;;;;;19.42;10.80;;;;;;;;;;5092439;28;20064;-72
2021/03/11 03:45:07;;;;;;;17.98;9.90;;;;;;;;;;5091214;28;20026;-72
2021/03/11 03:47:35;;;;;;;19.92;10.15;;;;;;;;;;5092085;28;20055;-71
2021/03/11 03:50:01;;;;;;;16.60;9.80;;;;;;;;;;5091046;28;20025;-71
2021/03/11 03:52:28;;;;;;;22.65;10.38;;;;;;;;;;5092023;28;20424;-72
2021/03/11 03:54:56;;;;;;;17.02;9.88;;;;;;;;;;5092369;28;20418;-72
2021/03/11 03:57:22;;;;;;;20.33;9.07;;;;;;;;;;5092483;28;20024;-72
2021/03/11 03:59:53;;;;;;;18.90;10.02;;;;;;;;;;5092011;28;20021;-72
2021/03/11 04:02:20;;;;;;;18.50;9.70;;;;;;;;;;5092212;28;20490;-72
2021/03/11 04:04:48;;;;;;;17.27;10.10;;;;;;;;;;5092282;28;20411;-71
2021/03/11 04:07:16;;;;;;;18.30;9.73;;;;;;;;;;5091838;28;20036;-72
2021/03/11 04:09:42;;;;;;;16.13;9.38;;;;;;;;;;5092428;28;20066;-71
2021/03/11 04:12:10;;;;;;;19.70;9.10;;;;;;;;;;5092213;28;20065;-71
2021/03/11 04:14:37;;;;;;;18.10;9.00;;;;;;;;;;5091955;28;20020;-72
2021/03/11 04:17:04;;;;;;;15.93;9.38;;;;;;;;;;5092279;28;20043;-71
2021/03/11 04:19:31;;;;;;;14.82;8.63;;;;;;;;;;5092283;28;20502;-71
2021/03/11 04:21:57;;;;;;;16.10;9.55;;;;;;;;;;5095316;28;20044;-71
2021/03/11 04:24:24;;;;;;;18.40;9.18;;;;;;;;;;5095928;28;20024;-71
2021/03/11 04:26:50;;;;;;;20.10;9.75;;;;;;;;;;5096168;28;20138;-71
2021/03/11 04:29:16;;;;;;;15.88;9.20;;;;;;;;;;5094111;28;20024;-71
2021/03/11 04:31:42;;;;;;;19.35;10.57;;;;;;;;;;5094563;28;20028;-71
2021/03/11 04:34:09;;;;;;;18.70;9.73;;;;;;;;;;5095957;28;20012;-71
2021/03/11 04:36:35;;;;;;;16.80;9.07;;;;;;;;;;5095470;28;20028;-72
2021/03/11 04:39:02;;;;;;;17.83;9.98;;;;;;;;;;5095564;28;20020;-71
2021/03/11 04:41:28;;;;;;;17.95;9.48;;;;;;;;;;5095537;28;20056;-71
2021/03/11 04:43:55;;;;;;;17.17;8.85;;;;;;;;;;5095184;28;20479;-71
2021/03/11 04:46:22;;;;;;;16.60;9.15;;;;;;;;;;5095521;28;20020;-71
2021/03/11 04:48:49;;;;;;;18.83;9.63;;;;;;;;;;5095149;28;20027;-71
2021/03/11 04:51:19;;;;;;;16.50;9.02;;;;;;;;;;5095329;28;20024;-71
2021/03/11 04:53:46;;;;;;;14.27;8.30;;;;;;;;;;5094237;28;20028;-72
2021/03/11 04:56:12;;;;;;;13.85;8.13;;;;;;;;;;5095091;28;20020;-72
2021/03/11 04:58:39;;;;;;;17.17;10.00;;;;;;;;;;5095558;28;20040;-72
2021/03/11 05:01:09;;;;;;;18.20;8.98;;;;;;;;;;5095252;28;20043;-71
2021/03/11 05:03:37;;;;;;;18.13;10.02;;;;;;;;;;5095055;28;20057;-72
2021/03/11 05:06:03;;;;;;;15.30;9.32;;;;;;;;;;5095290;28;20028;-72
2021/03/11 05:08:29;;;;;;;15.48;9.43;;;;;;;;;;5095281;28;20093;-73
2021/03/11 05:10:56;;;;;;;16.75;9.48;;;;;;;;;;5094744;28;20031;-72
2021/03/11 05:13:22;;;;;;;18.75;8.65;;;;;;;;;;5095209;28;20495;-72
2021/03/11 05:15:48;;;;;;;15.85;9.15;;;;;;;;;;5095114;28;20028;-72
2021/03/11 05:18:14;;;;;;;15.13;9.05;;;;;;;;;;5094586;28;20020;-72
2021/03/11 05:20:40;;;;;;;21.27;9.95;;;;;;;;;;5094851;28;20415;-72
2021/03/11 05:23:06;;;;;;;17.30;8.98;;;;;;;;;;5093386;28;20039;-72
2021/03/11 05:25:33;;;;;;;18.17;9.23;;;;;;;;;;5094468;28;20425;-73
2021/03/11 05:27:59;;;;;;;18.90;10.32;;;;;;;;;;5094813;28;20027;-75
2021/03/11 05:30:25;;;;;;;21.25;10.75;;;;;;;;;;5094329;28;20020;-74
2021/03/11 05:32:51;;;;;;;21.23;11.32;;;;;;;;;;5094378;28;20420;-72
2021/03/11 05:35:17;;;;;;;19.23;10.63;;;;;;;;;;5093398;28;20024;-72
2021/03/11 05:37:43;;;;;;;18.95;10.85;;;;;;;;;;5094544;28;20031;-73
2021/03/11 05:40:11;;;;;;;22.17;11.95;;;;;;;;;;5094237;28;20020;-74
2021/03/11 05:42:38;;;;;;;16.40;10.20;;;;;;;;;;5094294;28;20057;-72
2021/03/11 05:45:05;;;;;;;19.38;10.68;;;;;;;;;;5094156;28;20016;-73
2021/03/11 05:47:32;;;;;;;22.75;11.90;;;;;;;;;;5094339;28;20020;-73
2021/03/11 05:50:00;;;;;;;18.58;10.57;;;;;;;;;;5093456;28;20384;-72
2021/03/11 05:52:27;;;;;;;18.17;11.18;;;;;;;;;;5094502;28;20028;-74
2021/03/11 05:54:53;;;;;;;22.92;11.90;;;;;;;;;;5094923;28;20447;-77
2021/03/11 05:57:20;;;;;;;26.17;12.68;;;;;;;;;;5094378;28;20107;-74
2021/03/11 05:59:46;;;;;;;23.23;13.52;;;;;;;;;;5093865;28;20379;-75
2021/03/11 06:02:12;;;;;;;21.15;12.20;;;;;;;;;;5094092;28;20105;-76
2021/03/11 06:04:39;;;;;;;22.23;11.38;;;;;;;;;;5094042;28;20051;-73
2021/03/11 06:07:08;;;;;;;20.75;11.52;;;;;;;;;;5093475;28;20141;-71
2021/03/11 06:09:35;;;;;;;22.35;12.07;;;;;;;;;;5092708;28;20023;-72
2021/03/11 06:12:02;;;;;;;18.08;10.82;;;;;;;;;;5092372;28;20524;-70
2021/03/11 06:14:32;;;;;;;22.17;11.93;;;;;;;;;;5091728;28;20028;-72
2021/03/11 06:17:02;;;;;;;26.02;15.60;;;;;;;;;;5090692;28;20012;-69
2021/03/11 06:19:29;;;;;;;24.88;13.35;;;;;;;;;;5091905;28;20024;-70
2021/03/11 06:21:55;;;;;;;21.45;12.65;;;;;;;;;;5091188;28;20079;-69
2021/03/11 06:24:22;;;;;;;23.92;14.43;;;;;;;;;;5091707;28;20085;-69
2021/03/11 06:26:49;;;;;;;25.00;14.80;;;;;;;;;;5093683;28;20357;-69
2021/03/11 06:29:18;;;;;;;22.45;12.88;;;;;;;;;;5091849;28;20111;-70
2021/03/11 06:31:44;;;;;;;26.52;14.25;;;;;;;;;;5092052;28;20024;-69
2021/03/11 06:34:20;;;;;;;28.35;15.27;;;;;;;;;;5093285;28;20471;-70
2021/03/11 06:36:47;;;;;;;23.58;13.10;;;;;;;;;;5093401;28;20499;-70
2021/03/11 06:39:23;;;;;;;22.05;12.15;;;;;;;;;;5093278;28;20028;-68
2021/03/11 06:41:50;;;;;;;18.77;11.43;;;;;;;;;;5090939;28;20028;-68
2021/03/11 06:44:16;;;;;;;24.00;12.20;;;;;;;;;;5091968;28;20024;-68
2021/03/11 06:46:58;;;;;;;20.50;11.73;;;;;;;;;;5092758;28;20024;-68
2021/03/11 06:49:24;;;;;;;24.95;13.32;;;;;;;;;;5093604;28;20143;-70
2021/03/11 06:52:07;;;;;;;28.65;14.32;;;;;;;;;;5113630;28;20024;-70
2021/03/11 06:54:52;;;;;;;20.40;12.18;;;;;;;;;;5113235;28;20027;-70
2021/03/11 06:57:39;;;;;;;18.13;11.13;;;;;;;;;;5112946;28;20141;-71
2021/03/11 07:00:16;;;;;;;22.33;11.65;;;;;;;;;;5111467;28;20019;-71
2021/03/11 07:03:03;;;;;;;27.20;13.15;;;;;;;;;;5112791;28;20024;-65
2021/03/11 07:05:29;;;;;;;20.42;11.50;;;;;;;;;;5098219;28;20016;-70
2021/03/11 07:08:16;;;;;;;22.90;12.95;;;;;;;;;;5092057;28;20028;-70
2021/03/11 07:10:43;;;;;;;23.33;12.38;;;;;;;;;;5090993;28;20028;-69
2021/03/11 07:13:10;;;;;;;16.77;10.82;;;;;;;;;;5092580;28;20028;-69
2021/03/11 07:15:37;;;;;;;24.60;13.82;;;;;;;;;;5092704;28;20524;-69
2021/03/11 07:18:06;;;;;;;27.63;14.25;;;;;;;;;;5092255;28;20169;-69
2021/03/11 07:20:33;;;;;;;17.40;11.30;;;;;;;;;;5092304;28;20062;-68
2021/03/11 07:22:59;;;;;;;20.15;11.50;;;;;;;;;;5091806;28;20040;-69
2021/03/11 07:25:28;;;;;;;15.77;10.30;;;;;;;;;;5091063;28;20027;-68
2021/03/11 07:27:55;;;;;;;15.75;9.25;;;;;;;;;;5091371;28;20365;-69
2021/03/11 07:30:22;;;;;;;18.67;11.55;;;;;;;;;;5092277;28;20058;-69
2021/03/11 07:32:49;;;;;;;20.35;11.30;;;;;;;;;;5092496;28;20025;-68
2021/03/11 07:35:18;;;;;;;27.05;13.13;;;;;;;;;;5092133;28;20430;-72
2021/03/11 07:37:51;;;;;;;21.10;10.80;;;;;;;;;;5090685;28;20035;-73
2021/03/11 07:40:18;;;;;;;19.77;11.27;;;;;;;;;;5092378;28;20103;-69
2021/03/11 07:42:44;;;;;;;17.27;10.85;;;;;;;;;;5090803;28;20032;-70
2021/03/11 07:45:11;;;;;;;18.17;10.23;;;;;;;;;;5091739;28;20058;-68
2021/03/11 07:47:39;;;;;;;18.30;10.70;;;;;;;;;;5090945;28;20027;-68
2021/03/11 07:50:07;;;;;;;17.98;10.15;;;;;;;;;;5092182;28;20020;-68
2021/03/11 07:52:34;;;;;;;24.80;13.10;;;;;;;;;;5091486;28;20119;-67
2021/03/11 07:55:03;;;;;;;19.10;12.45;;;;;;;;;;5093099;28;20024;-69
2021/03/11 07:57:31;;;;;;;20.58;10.38;;;;;;;;;;5094219;28;20028;-70
2021/03/11 07:59:58;;;;;;;17.08;10.55;;;;;;;;;;5094002;28;20026;-69
2021/03/11 08:02:25;;;;;;;15.07;9.30;;;;;;;;;;5095413;28;20035;-66
2021/03/11 08:04:51;;;;;;;17.88;9.98;;;;;;;;;;5114070;28;20471;-67
2021/03/11 08:07:27;;;;;;;15.57;8.85;;;;;;;;;;5095240;28;20035;-67
2021/03/11 08:09:54;;;;;;;15.88;8.55;;;;;;;;;;5094562;28;20027;-69
2021/03/11 08:12:31;;;;;;;18.83;10.68;;;;;;;;;;5094976;28;20104;-70
2021/03/11 08:14:58;;;;;;;20.08;11.02;;;;;;;;;;5093358;28;20095;-67
2021/03/11 08:17:34;;;;;;;18.63;10.63;;;;;;;;;;5095889;28;20031;-67
2021/03/11 08:20:01;;;;;;;16.20;9.55;;;;;;;;;;5095276;28;20043;-67
2021/03/11 08:22:45;;;;;;;19.88;10.50;;;;;;;;;;5095611;28;20444;-69
2021/03/11 08:25:30;;;;;;;17.02;10.40;;;;;;;;;;5095343;28;20051;-71
2021/03/11 08:27:56;;;;;;;19.13;9.35;;;;;;;;;;5094832;28;20016;-70
2021/03/11 08:30:40;;;;;;;16.95;9.73;;;;;;;;;;5094597;28;20399;-70
2021/03/11 08:33:07;;;;;;;18.30;10.90;;;;;;;;;;5093958;28;20387;-70
2021/03/11 08:35:34;;;;;;;20.13;8.63;;;;;;;;;;5095182;28;20036;-70
2021/03/11 08:38:00;;;;;;;14.38;8.48;;;;;;;;;;5092138;28;20018;-69
2021/03/11 08:40:33;;;;;;;14.90;8.68;;;;;;;;;;5093545;28;20024;-69
2021/03/11 08:42:59;;;;;;;;;;;;;;;;;;5093518;28;20032;-69
2021/03/11 08:45:35;;;;;;;16.50;10.57;;;;;;;;;;5093378;28;19910;-68
2021/03/11 08:48:20;;;;;;;19.58;10.98;;;;;;;;;;5092385;28;20080;-69
2021/03/11 08:50:49;;;;;;;12.15;7.65;;;;;;;;;;5092727;28;20042;-69
2021/03/11 08:53:34;;;;;;;14.55;8.55;;;;;;;;;;5093148;28;20558;-70
2021/03/11 08:56:00;;;;;;;11.85;6.85;;;;;;;;;;5090608;28;20031;-69
2021/03/11 08:58:27;;;;;;;16.55;8.13;;;;;;;;;;5083968;28;20039;-71
2021/03/11 09:01:00;;;;;;;11.93;6.18;;;;;;;;;;5083648;28;20023;-73
2021/03/11 09:03:39;;;;;;;12.20;7.83;;;;;;;;;;5081343;28;20050;-74
2021/03/11 09:06:06;;;;;;;18.60;7.82;;;;;;;;;;5079400;28;20055;-73
2021/03/11 09:08:34;;;;;;;12.00;7.53;;;;;;;;;;5080497;28;20060;-72
2021/03/11 09:11:14;;;;;;;13.40;7.68;;;;;;;;;;5090520;28;20433;-72
2021/03/11 09:13:41;;;;;;;13.57;7.22;;;;;;;;;;5081950;28;20040;-72
2021/03/11 09:16:08;;;;;;;11.73;6.78;;;;;;;;;;5079984;28;20066;-73
2021/03/11 09:18:35;;;;;;;11.90;6.88;;;;;;;;;;5080565;28;20032;-76
2021/03/11 09:21:01;;;;;;;12.68;7.35;;;;;;;;;;5081735;28;20074;-72
2021/03/11 09:23:34;;;;;;;11.68;6.22;;;;;;;;;;5080457;28;20040;-73
2021/03/11 09:26:00;;;;;;;15.57;8.32;;;;;;;;;;5081151;28;20495;-70
2021/03/11 09:28:26;;;;;;;11.48;7.25;;;;;;;;;;5081554;28;20436;-69
2021/03/11 09:30:53;;;;;;;12.00;6.57;;;;;;;;;;5088392;28;20026;-70
2021/03/11 09:33:21;;;;;;;15.13;8.07;;;;;;;;;;5089073;28;20024;-71
2021/03/11 09:35:47;;;;;;;14.20;6.80;;;;;;;;;;5090827;28;20019;-71
2021/03/11 09:38:21;;;;;;;14.10;7.15;;;;;;;;;;5090501;28;20578;-73
2021/03/11 09:41:02;;;;;;;12.23;7.68;;;;;;;;;;5090730;28;20016;-74
2021/03/11 09:43:35;;;;;;;13.48;8.05;;;;;;;;;;5091596;28;20115;-71
2021/03/11 09:46:12;;;;;;;12.45;6.65;;;;;;;;;;5091915;28;20024;-71
2021/03/11 09:48:39;;;;;;;13.40;8.65;;;;;;;;;;5093837;28;20024;-73
2021/03/11 09:51:07;;;;;;;13.88;7.47;;;;;;;;;;5093603;28;20028;-70
2021/03/11 09:53:47;;;;;;;13.43;8.68;;;;;;;;;;5092143;28;20483;-72
2021/03/11 09:56:24;;;;;;;15.32;8.73;;;;;;;;;;5092480;28;20544;-72
2021/03/11 09:58:54;;;;;;;14.43;8.88;;;;;;;;;;5080634;28;20017;-72
2021/03/11 10:01:33;;;;;;;14.10;8.38;;;;;;;;;;5086662;28;20051;-69
2021/03/11 10:04:00;;;;;;;15.93;7.85;;;;;;;;;;5086315;28;20035;-74
2021/03/11 10:06:27;;;;;;;15.05;8.10;;;;;;;;;;5085596;28;20046;-74
2021/03/11 10:08:57;;;;;;;20.98;10.05;;;;;;;;;;5089921;28;20476;-69
2021/03/11 10:11:41;;;;;;;12.27;7.30;;;;;;;;;;5091538;28;20020;-68
2021/03/11 10:14:21;;;;;;;19.63;8.80;;;;;;;;;;5071049;28;20017;-67
2021/03/11 10:16:51;;;;;;;15.75;9.73;;;;;;;;;;5081641;28;20029;-67
2021/03/11 10:19:21;;;;;;;15.13;7.47;;;;;;;;;;5092435;28;20034;-68
2021/03/11 10:21:51;;;;;;;15.98;8.10;;;;;;;;;;5087243;28;20444;-68
2021/03/11 10:24:49;;;;;;;10.93;7.10;;;;;;;;;;5088272;28;20024;-69
2021/03/11 10:27:23;;;;;;;10.88;6.53;;;;;;;;;;5057276;28;20039;-69
2021/03/11 10:30:05;;;;;;;11.15;6.97;;;;;;;;;;5092381;28;20421;-67
2021/03/11 10:32:31;;;;;;;11.57;7.45;;;;;;;;;;5103512;28;20412;-68
2021/03/11 10:36:57;;;;;;;13.77;7.90;;;;;;;;;;5109798;27;20442;-70
2021/03/11 10:39:24;;;;;;;13.65;8.45;;;;;;;;;;5107336;28;20451;-69
2021/03/11 10:43:28;;;;;;;13.20;8.30;;;;;;;;;;5110133;27;20385;-69
2021/03/11 10:45:54;;;;;;;16.73;9.70;;;;;;;;;;5109162;28;20050;-68
2021/03/11 10:50:04;;;;;;;10.90;6.30;;;;;;;;;;5109075;27;20381;-68
2021/03/11 10:53:38;;;;;;;14.35;8.23;;;;;;;;;;5068918;28;20380;-68
2021/03/11 10:56:08;;;;;;;13.90;7.93;;;;;;;;;;5069185;28;20039;-68
2021/03/11 10:58:34;;;;;;;13.63;7.03;;;;;;;;;;5069504;28;20025;-68
2021/03/11 11:01:52;;;;;;;12.77;6.20;;;;;;;;;;5109670;27;20965;-67
2021/03/11 11:04:19;;;;;;;12.25;7.35;;;;;;;;;;5109808;28;20024;-67
2021/03/11 11:06:45;;;;;;;12.02;7.43;;;;;;;;;;5109877;28;20015;-67
2021/03/11 11:09:11;;;;;;;10.57;6.15;;;;;;;;;;5109380;28;20370;-68
2021/03/11 11:11:37;;;;;;;13.07;7.07;;;;;;;;;;5109432;28;20054;-68
2021/03/11 11:14:03;;;;;;;15.68;9.40;;;;;;;;;;5109801;28;20032;-70
2021/03/11 11:16:29;;;;;;;13.15;6.65;;;;;;;;;;5109422;28;20028;-68
2021/03/11 11:18:56;;;;;;;11.15;6.43;;;;;;;;;;5109323;28;20417;-70
2021/03/11 11:21:23;;;;;;;19.27;8.63;;;;;;;;;;5109451;28;20050;-68
2021/03/11 11:23:49;;;;;;;11.02;6.10;;;;;;;;;;5108631;28;20016;-70
2021/03/11 11:27:10;;;;;;;14.50;6.85;;;;;;;;;;5127106;27;20126;-70
2021/03/11 11:29:37;;;;;;;9.57;5.43;;;;;;;;;;5109368;28;20039;-70
2021/03/11 11:32:03;;;;;;;8.50;5.68;;;;;;;;;;5110135;28;20031;-70
2021/03/11 11:36:25;;;;;;;10.27;6.25;;;;;;;;;;5109959;27;20430;-68
2021/03/11 11:41:39;;;;;;;14.02;6.45;;;;;;;;;;5129976;27;20528;-68
2021/03/11 11:45:43;;;;;;;16.23;6.10;;;;;;;;;;5046735;28;20434;-68
2021/03/11 11:48:09;;;;;;;9.93;5.75;;;;;;;;;;5047562;28;20420;-69
2021/03/11 11:50:36;;;;;;;10.15;6.22;;;;;;;;;;5047593;28;20421;-67
2021/03/11 11:53:02;;;;;;;11.93;7.25;;;;;;;;;;5047051;28;20087;-67
2021/03/11 11:57:48;;;;;;;13.05;7.63;;;;;;;;;;5127912;27;20163;-69
2021/03/11 12:00:16;;;;;;;17.75;10.00;;;;;;;;;;5109665;28;20028;-68
2021/03/11 12:02:59;;;;;;;20.33;11.23;;;;;;;;;;5049634;28;20381;-68
2021/03/11 12:06:50;;;;;;;13.13;8.05;;;;;;;;;;5049432;28;20480;-68
2021/03/11 12:09:16;;;;;;;14.15;8.55;;;;;;;;;;5049420;28;20040;-69
2021/03/11 12:11:42;;;;;;;16.55;10.48;;;;;;;;;;5048522;28;20056;-68
2021/03/11 12:14:08;;;;;;;13.35;8.13;;;;;;;;;;5044806;28;20119;-68
2021/03/11 12:16:35;;;;;;;14.07;7.55;;;;;;;;;;5049069;28;20573;-70
2021/03/11 12:20:16;;;;;;;10.02;5.60;;;;;;;;;;5109676;27;20446;-68
2021/03/11 12:22:42;;;;;;;8.98;5.28;;;;;;;;;;5109894;28;20047;-68
2021/03/11 12:25:09;;;;;;;12.95;7.45;;;;;;;;;;5109645;28;20459;-68
2021/03/11 12:27:36;;;;;;;18.25;8.32;;;;;;;;;;5109836;28;20030;-66
2021/03/11 12:30:02;;;;;;;12.27;6.97;;;;;;;;;;5109385;28;20020;-67
2021/03/11 12:32:28;;;;;;;17.65;10.07;;;;;;;;;;5109667;28;20070;-68
2021/03/11 12:34:54;;;;;;;15.38;8.82;;;;;;;;;;5109323;28;20047;-68
2021/03/11 12:37:20;;;;;;;17.30;9.30;;;;;;;;;;5109693;28;20059;-69
2021/03/11 12:39:47;;;;;;;16.85;9.38;;;;;;;;;;5109408;28;20507;-68
2021/03/11 12:43:18;;;;;;;10.07;5.38;;;;;;;;;;5067074;28;20739;-69
2021/03/11 12:45:44;;;;;;;12.65;7.28;;;;;;;;;;5069080;28;20029;-68
2021/03/11 12:48:11;;;;;;;9.48;5.78;;;;;;;;;;5068926;28;20053;-67
2021/03/11 12:50:37;;;;;;;10.68;5.80;;;;;;;;;;5068197;28;20385;-67
2021/03/11 12:53:04;;;;;;;16.27;9.27;;;;;;;;;;5068496;28;20053;-68
2021/03/11 12:55:30;;;;;;;14.18;8.98;;;;;;;;;;5068184;28;20043;-68
2021/03/11 12:58:40;;;;;;;10.80;6.25;;;;;;;;;;5171584;27;20310;-67
2021/03/11 13:01:07;;;;;;;12.40;7.88;;;;;;;;;;5150309;27;20051;-67
2021/03/11 13:03:34;;;;;;;10.85;6.57;;;;;;;;;;5149798;27;20042;-67
2021/03/11 13:06:00;;;;;;;11.98;6.80;;;;;;;;;;5149561;27;20366;-70
2021/03/11 13:08:27;;;;;;;10.90;5.63;;;;;;;;;;5150043;27;20486;-71
2021/03/11 13:10:53;;;;;;;13.00;6.00;;;;;;;;;;5148422;27;20023;-73
2021/03/11 13:13:20;;;;;;;19.48;10.23;;;;;;;;;;5147093;27;20023;-71
2021/03/11 13:16:12;;;;;;;13.85;7.95;;;;;;;;;;5127785;27;20316;-69
2021/03/11 13:20:42;;;;;;;18.85;7.80;;;;;;;;;;5107707;27;20442;-70
2021/03/11 13:23:44;;;;;;;24.65;11.30;;;;;;;;;;5066833;28;20384;-71
2021/03/11 13:26:15;;;;;;;20.65;12.63;;;;;;;;;;5067692;28;20025;-71
2021/03/11 13:28:41;;;;;;;14.15;8.57;;;;;;;;;;5069412;28;20104;-70
2021/03/11 13:31:07;;;;;;;10.23;5.85;;;;;;;;;;5068509;28;20021;-71
2021/03/11 13:33:33;;;;;;;23.55;13.02;;;;;;;;;;5069446;28;20055;-72
2021/03/11 13:35:59;;;;;;;11.30;6.38;;;;;;;;;;5067040;28;20028;-71
2021/03/11 13:40:24;;;;;;;16.75;10.52;;;;;;;;;;5069415;28;20380;-71
2021/03/11 13:42:50;;;;;;;19.27;10.70;;;;;;;;;;5068328;28;20035;-72
2021/03/11 13:45:17;;;;;;;18.83;10.68;;;;;;;;;;5068420;28;20384;-71
2021/03/11 13:47:43;;;;;;;13.50;8.98;;;;;;;;;;5068080;28;20043;-71
2021/03/11 13:50:09;;;;;;;12.20;7.35;;;;;;;;;;5066633;28;20029;-70
2021/03/11 13:52:36;;;;;;;10.35;6.28;;;;;;;;;;5069371;28;20083;-71
2021/03/11 13:55:02;;;;;;;17.50;9.68;;;;;;;;;;5069372;28;20353;-70
2021/03/11 13:57:28;;;;;;;15.75;8.45;;;;;;;;;;5068268;28;20060;-70
2021/03/11 13:59:55;;;;;;;13.55;9.15;;;;;;;;;;5068985;28;20036;-70
2021/03/11 14:02:21;;;;;;;11.25;6.55;;;;;;;;;;5068855;28;20412;-71
2021/03/11 14:04:47;;;;;;;20.55;11.60;;;;;;;;;;5068128;28;20078;-70
2021/03/11 14:09:10;;;;;;;17.02;9.80;;;;;;;;;;5109937;27;20442;-70
2021/03/11 14:11:36;;;;;;;12.35;6.65;;;;;;;;;;5109243;28;20409;-70
2021/03/11 14:14:02;;;;;;;18.98;10.90;;;;;;;;;;5109431;28;20093;-70
2021/03/11 14:16:28;;;;;;;16.27;10.55;;;;;;;;;;5109668;28;20056;-70
2021/03/11 14:18:55;;;;;;;12.57;7.78;;;;;;;;;;5109404;28;20024;-70
2021/03/11 14:21:21;;;;;;;16.75;7.88;;;;;;;;;;5108744;28;20031;-70
2021/03/11 14:23:47;;;;;;;13.55;7.78;;;;;;;;;;5109996;28;20046;-71
2021/03/11 14:26:13;;;;;;;11.80;6.30;;;;;;;;;;5109724;28;20495;-69
2021/03/11 14:28:40;;;;;;;12.32;7.18;;;;;;;;;;5110181;28;20424;-71
2021/03/11 14:31:06;;;;;;;14.30;8.20;;;;;;;;;;5109969;28;20020;-69
2021/03/11 14:33:32;;;;;;;12.45;6.80;;;;;;;;;;5109479;28;20031;-70
2021/03/11 14:35:58;;;;;;;19.52;9.93;;;;;;;;;;5109782;28;20027;-70
2021/03/11 14:38:24;;;;;;;24.60;12.05;;;;;;;;;;5109804;28;20023;-70
2021/03/11 14:40:51;;;;;;;15.10;8.52;;;;;;;;;;5109246;28;20024;-70
2021/03/11 14:43:17;;;;;;;13.05;8.43;;;;;;;;;;5109664;28;20483;-69
2021/03/11 14:45:43;;;;;;;13.20;7.35;;;;;;;;;;5109674;28;20027;-70
2021/03/11 14:48:10;;;;;;;14.27;8.20;;;;;;;;;;5109391;28;20038;-70
2021/03/11 14:50:36;;;;;;;20.60;11.25;;;;;;;;;;5109628;28;20355;-69
2021/03/11 14:53:02;;;;;;;17.20;9.05;;;;;;;;;;5109614;28;20107;-70
2021/03/11 14:55:28;;;;;;;14.57;7.82;;;;;;;;;;5109160;28;20054;-71
2021/03/11 14:57:55;;;;;;;18.70;11.20;;;;;;;;;;5109486;28;20032;-71